createdAt,value
2022-09-11T00:03:42.993Z,1005.935
2022-09-11T00:08:45.562Z,1005.959
2022-09-11T00:13:48.090Z,1005.908
2022-09-11T00:23:53.244Z,1005.978
2022-09-11T00:28:55.884Z,1005.966
2022-09-11T00:33:58.407Z,1005.958
2022-09-11T00:39:01.200Z,1005.959
2022-09-11T00:44:03.893Z,1006.007
2022-09-11T00:49:06.227Z,1005.958
2022-09-11T00:54:08.943Z,1005.96
2022-09-11T01:04:14.301Z,1006.034
2022-09-11T01:09:17.150Z,1006.023
2022-09-11T01:14:19.743Z,1006.024
2022-09-11T01:19:22.342Z,1006.036
2022-09-11T01:24:27.684Z,1006.014
2022-09-11T01:29:30.372Z,1006.056
2022-09-11T01:34:35.538Z,1006.051
2022-09-11T01:39:38.396Z,1006.096
2022-09-11T01:44:40.909Z,1006.068
2022-09-11T01:49:43.534Z,1006.073
2022-09-11T01:54:46.188Z,1006.078
2022-09-11T01:59:48.825Z,1006.171
2022-09-11T02:04:51.597Z,1006.15
2022-09-11T02:09:54.102Z,1006.163
2022-09-11T02:14:56.691Z,1006.148
2022-09-11T02:19:59.132Z,1006.175
2022-09-11T02:25:01.728Z,1006.242
2022-09-11T02:30:04.208Z,1006.2
2022-09-11T02:46:08.067Z,1006.236
2022-09-11T02:51:10.587Z,1006.314
2022-09-11T02:56:13.305Z,1006.358
2022-09-11T03:01:15.944Z,1006.36
2022-09-11T03:06:18.545Z,1006.389
2022-09-11T03:16:23.958Z,1006.483
2022-09-11T03:21:26.539Z,1006.58
2022-09-11T03:26:29.087Z,1006.672
2022-09-11T03:31:31.858Z,1006.709
2022-09-11T03:36:34.628Z,1006.763
2022-09-11T03:41:37.218Z,1006.887
2022-09-11T03:46:39.971Z,1006.905
2022-09-11T03:56:44.935Z,1007.02
2022-09-11T04:01:47.520Z,1007.041
2022-09-11T04:06:50.125Z,1007.105
2022-09-11T04:11:52.641Z,1007.134
2022-09-11T04:21:57.753Z,1007.143
2022-09-11T04:32:21.492Z,1007.23
2022-09-11T04:37:24.501Z,1007.227
2022-09-11T04:42:26.899Z,1007.286
2022-09-11T04:47:29.713Z,1007.301
2022-09-11T04:52:32.520Z,1007.22
2022-09-11T04:57:35.139Z,1007.243
2022-09-11T05:02:37.739Z,1007.149
2022-09-11T05:12:42.721Z,1007.166
2022-09-11T05:17:45.368Z,1007.306
2022-09-11T05:22:48.116Z,1007.31
2022-09-11T05:27:53.582Z,1007.42
2022-09-11T05:32:56.395Z,1007.436
2022-09-11T05:37:58.837Z,1007.514
2022-09-11T05:43:01.533Z,1007.561
2022-09-11T05:48:03.908Z,1007.796
2022-09-11T05:53:09.977Z,1007.846
2022-09-11T05:58:12.590Z,1007.964
2022-09-11T06:03:15.471Z,1008.026
2022-09-11T06:08:18.019Z,1008.105
2022-09-11T06:13:20.806Z,1008.172
2022-09-11T06:18:23.417Z,1008.172
2022-09-11T06:28:29.138Z,1008.229
2022-09-11T06:33:31.873Z,1008.305
2022-09-11T06:38:34.719Z,1008.302
2022-09-11T06:43:37.356Z,1008.391
2022-09-11T06:48:40.017Z,1008.413
2022-09-11T06:53:42.853Z,1008.415
2022-09-11T06:58:45.024Z,1008.417
2022-09-11T07:03:47.469Z,1008.412
2022-09-11T07:08:52.791Z,1008.431
2022-09-11T07:13:55.680Z,1008.393
2022-09-11T07:19:01.145Z,1008.446
2022-09-11T07:24:03.498Z,1008.51
2022-09-11T07:29:06.203Z,1008.501
2022-09-11T07:34:11.509Z,1008.589
2022-09-11T07:44:17.434Z,1008.536
2022-09-11T07:54:23.330Z,1008.577
2022-09-11T07:59:26.146Z,1008.628
2022-09-11T08:09:32.366Z,1008.705
2022-09-11T08:14:34.904Z,1008.824
2022-09-11T08:19:37.441Z,1008.85
2022-09-11T08:24:40.609Z,1008.9
2022-09-11T08:29:43.426Z,1008.99
2022-09-11T08:34:46.066Z,1009.035
2022-09-11T08:39:48.815Z,1009.051
2022-09-11T08:44:51.490Z,1009.024
2022-09-11T08:49:54.463Z,1009.067
2022-09-11T08:54:57.302Z,1009.067
2022-09-11T09:00:00.037Z,1009.113
2022-09-11T09:05:02.724Z,1009.099
2022-09-11T09:10:04.673Z,1009.154
2022-09-11T09:15:29.250Z,1009.156
2022-09-11T09:20:28.316Z,1009.202
2022-09-11T09:25:31.209Z,1009.196
2022-09-11T09:30:33.681Z,1009.179
2022-09-11T09:40:39.135Z,1009.202
2022-09-11T09:45:42.073Z,1009.176
2022-09-11T09:50:44.807Z,1009.141
2022-09-11T09:55:47.238Z,1009.223
2022-09-11T10:00:49.688Z,1009.288
2022-09-11T10:05:52.403Z,1009.291
2022-09-11T10:10:55.402Z,1009.353
2022-09-11T10:15:58.317Z,1009.379
2022-09-11T10:21:01.770Z,1009.371
2022-09-11T10:26:03.581Z,1009.347
2022-09-11T10:31:06.184Z,1009.347
2022-09-11T10:36:09.229Z,1009.368
2022-09-11T10:41:11.997Z,1009.454
2022-09-11T10:46:17.798Z,1009.467
2022-09-11T10:51:20.773Z,1009.46
2022-09-11T10:56:23.521Z,1009.472
2022-09-11T11:01:44.163Z,1009.53
2022-09-11T11:06:46.732Z,1009.601
2022-09-11T11:11:49.094Z,1009.614
2022-09-11T11:16:51.804Z,1009.62
2022-09-11T11:26:57.287Z,1009.593
2022-09-11T11:32:03.417Z,1009.571
2022-09-11T11:37:06.134Z,1009.603
2022-09-11T11:42:08.889Z,1009.493
2022-09-11T11:47:11.568Z,1009.495
2022-09-11T11:52:14.184Z,1009.519
2022-09-11T11:57:16.875Z,1009.547
2022-09-11T12:02:19.576Z,1009.531
2022-09-11T12:07:22.066Z,1009.623
2022-09-11T12:12:24.762Z,1009.615
2022-09-11T12:27:32.905Z,1009.592
2022-09-11T12:32:35.516Z,1009.677
2022-09-11T12:37:38.269Z,1009.693
2022-09-11T12:42:41.072Z,1009.672
2022-09-11T12:47:43.734Z,1009.732
2022-09-11T12:57:49.063Z,1009.732
2022-09-11T13:02:51.491Z,1009.706
2022-09-11T13:07:54.126Z,1009.667
2022-09-11T13:12:57.029Z,1009.622
2022-09-11T13:17:59.623Z,1009.592
2022-09-11T13:23:02.293Z,1009.478
2022-09-11T13:28:04.963Z,1009.451
2022-09-11T13:33:07.719Z,1009.434
2022-09-11T13:38:10.320Z,1009.485
2022-09-11T13:43:13.028Z,1009.511
2022-09-11T14:03:23.358Z,1009.57
2022-09-11T14:08:25.866Z,1009.531
2022-09-11T14:13:28.800Z,1009.545
2022-09-11T14:18:31.363Z,1009.499
2022-09-11T14:33:39.342Z,1009.527
2022-09-11T14:38:44.629Z,1009.486
2022-09-11T14:43:49.447Z,1009.473
2022-09-11T14:48:50.164Z,1009.524
2022-09-11T14:53:52.929Z,1009.548
2022-09-11T15:14:16.248Z,1009.493
2022-09-11T15:19:06.183Z,1009.654
2022-09-11T15:24:08.701Z,1009.661
2022-09-11T15:34:14.211Z,1009.626
2022-09-11T15:39:16.772Z,1009.661
2022-09-11T15:44:19.384Z,1009.625
2022-09-11T15:54:24.738Z,1009.669
2022-09-11T15:59:27.253Z,1009.689
2022-09-11T16:04:29.869Z,1009.64
2022-09-11T16:09:32.483Z,1009.635
2022-09-11T16:14:35.056Z,1009.602
2022-09-11T16:30:32.516Z,1009.568
2022-09-11T16:40:12.260Z,1009.537
2022-09-11T16:45:14.917Z,1009.544
2022-09-11T16:50:17.704Z,1009.485
2022-09-11T17:00:23.001Z,1009.523
2022-09-11T17:05:25.820Z,1009.558
2022-09-11T17:10:28.386Z,1009.549
2022-09-11T17:15:31.006Z,1009.589
2022-09-11T17:20:33.652Z,1009.633
2022-09-11T17:25:36.342Z,1009.608
2022-09-11T17:30:39.568Z,1009.633
2022-09-11T17:35:42.179Z,1009.665
2022-09-11T17:40:44.958Z,1009.701
2022-09-11T17:45:47.813Z,1009.712
2022-09-11T17:50:50.470Z,1009.666
2022-09-11T17:55:52.995Z,1009.681
2022-09-11T18:16:03.337Z,1009.736
2022-09-11T18:21:05.899Z,1009.768
2022-09-11T18:26:09.724Z,1009.827
2022-09-11T18:31:11.175Z,1009.908
2022-09-11T18:36:14.082Z,1009.976
2022-09-11T18:41:16.626Z,1010.07
2022-09-11T18:46:19.306Z,1010.111
2022-09-11T18:51:21.969Z,1010.045
2022-09-11T18:56:24.905Z,1010.059
2022-09-11T19:01:27.617Z,1010.112
2022-09-11T19:06:30.050Z,1010.122
2022-09-11T19:11:32.556Z,1010.129
2022-09-11T19:16:35.448Z,1010.259
2022-09-11T19:21:38.050Z,1010.298
2022-09-11T19:26:40.704Z,1010.359
2022-09-11T19:31:43.441Z,1010.373
2022-09-11T19:36:46.070Z,1010.42
2022-09-11T19:41:48.584Z,1010.466
2022-09-11T19:51:56.521Z,1010.594
2022-09-11T20:02:01.780Z,1010.546
2022-09-11T20:07:04.365Z,1010.532
2022-09-11T20:12:06.892Z,1010.549
2022-09-11T20:22:12.301Z,1010.547
2022-09-11T20:27:14.940Z,1010.597
2022-09-11T20:32:17.840Z,1010.622
2022-09-11T20:42:23.096Z,1010.635
2022-09-11T20:47:25.692Z,1010.633
2022-09-11T20:57:31.072Z,1010.631
2022-09-11T21:02:33.693Z,1010.63
2022-09-11T21:07:36.109Z,1010.573
2022-09-11T21:12:38.875Z,1010.618
2022-09-11T21:17:41.405Z,1010.619
2022-09-11T21:22:44.238Z,1010.596
2022-09-11T21:27:46.667Z,1010.627
2022-09-11T21:32:49.126Z,1010.666
2022-09-11T21:37:51.895Z,1010.643
2022-09-11T21:42:54.407Z,1010.688
2022-09-11T21:47:57.039Z,1010.645
2022-09-11T21:52:59.663Z,1010.605
2022-09-11T21:58:02.182Z,1010.607
2022-09-11T22:03:04.646Z,1010.59
2022-09-11T22:08:07.246Z,1010.556
2022-09-11T22:13:10.063Z,1010.518
2022-09-11T22:18:12.656Z,1010.552
2022-09-11T22:23:15.242Z,1010.652
2022-09-11T22:28:17.931Z,1010.678
2022-09-11T22:33:20.715Z,1010.612
2022-09-11T22:38:23.476Z,1010.644
2022-09-11T22:43:26.089Z,1010.636
2022-09-11T22:48:28.806Z,1010.647
2022-09-11T22:53:31.465Z,1010.618
2022-09-11T22:58:34.142Z,1010.548
2022-09-11T23:03:36.547Z,1010.572
2022-09-11T23:08:39.490Z,1010.537
2022-09-11T23:13:41.809Z,1010.541
2022-09-11T23:18:44.335Z,1010.546
2022-09-11T23:23:46.921Z,1010.511
2022-09-11T23:28:49.432Z,1010.501
2022-09-11T23:33:52.021Z,1010.482
2022-09-11T23:38:54.550Z,1010.435
2022-09-11T23:43:57.264Z,1010.431
2022-09-11T23:54:57.882Z,1010.437
